Time;durP1;ratioP1;P1;durP2;ratioP2;P2;SDS_P1;SDS_P2;PMS_P1;PMS_P2;Temp;Humidity;BMP_temperature;BMP_pressure;BME280_temperature;BME280_humidity;BME280_pressure;Samples;Min_cycle;Max_cycle;Signal;HPM_P1;HPM_P2
2023/10/27 00:01:45;;;;;;;10.80;9.70;;;;;;;;;;5075142;28;20474;-82
2023/10/27 00:04:11;;;;;;;12.90;9.47;;;;;;;;;;5075396;28;20447;-82
2023/10/27 00:06:38;;;;;;;10.47;9.50;;;;;;;;;;5075310;28;20462;-82
2023/10/27 00:09:04;;;;;;;13.53;8.93;;;;;;;;;;5075015;28;20509;-82
2023/10/27 00:11:32;;;;;;;15.50;10.10;;;;;;;;;;5074389;28;20448;-81
2023/10/27 00:13:59;;;;;;;14.10;10.03;;;;;;;;;;5075034;28;20536;-82
2023/10/27 00:16:25;;;;;;;12.40;10.40;;;;;;;;;;5056868;28;20418;-82
2023/10/27 00:18:51;;;;;;;12.20;10.07;;;;;;;;;;5075220;28;20431;-82
2023/10/27 00:21:18;;;;;;;14.40;11.07;;;;;;;;;;5074250;28;20418;-81
2023/10/27 00:23:44;;;;;;;13.50;10.80;;;;;;;;;;5073747;28;20467;-82
2023/10/27 00:26:11;;;;;;;13.93;11.93;;;;;;;;;;5073370;28;20956;-84
2023/10/27 00:28:39;;;;;;;13.57;10.40;;;;;;;;;;5074970;28;20474;-82
2023/10/27 00:31:05;;;;;;;13.50;10.10;;;;;;;;;;5074868;28;20431;-82
2023/10/27 00:33:31;;;;;;;11.10;9.80;;;;;;;;;;5073960;28;20475;-82
2023/10/27 00:35:58;;;;;;;14.07;12.00;;;;;;;;;;5074814;28;20533;-82
2023/10/27 00:38:24;;;;;;;11.60;9.60;;;;;;;;;;5074332;28;20438;-82
2023/10/27 00:40:50;;;;;;;12.53;10.60;;;;;;;;;;5074667;28;20477;-82
2023/10/27 00:43:17;;;;;;;12.37;11.07;;;;;;;;;;5074306;28;20966;-82
2023/10/27 00:45:46;;;;;;;12.90;10.40;;;;;;;;;;5074751;28;20442;-81
2023/10/27 00:48:13;;;;;;;13.73;10.07;;;;;;;;;;5074122;28;20528;-81
2023/10/27 00:50:39;;;;;;;13.00;9.90;;;;;;;;;;5074717;28;20438;-81
2023/10/27 00:53:06;;;;;;;12.60;9.90;;;;;;;;;;5074057;28;20467;-82
2023/10/27 00:55:33;;;;;;;10.73;9.63;;;;;;;;;;5074467;28;20451;-81
2023/10/27 00:58:01;;;;;;;15.00;9.43;;;;;;;;;;5073879;28;20470;-81
2023/10/27 01:00:28;;;;;;;12.53;10.47;;;;;;;;;;5074646;28;20434;-82
2023/10/27 01:02:55;;;;;;;12.93;10.20;;;;;;;;;;5074043;28;20471;-82
2023/10/27 01:05:22;;;;;;;10.93;9.50;;;;;;;;;;5074147;28;20462;-81
2023/10/27 01:07:48;;;;;;;11.67;9.97;;;;;;;;;;5074097;28;21010;-82
2023/10/27 01:10:15;;;;;;;11.30;9.67;;;;;;;;;;5074266;28;20458;-82
2023/10/27 01:12:46;;;;;;;10.77;9.70;;;;;;;;;;5072476;28;20445;-82
2023/10/27 01:15:13;;;;;;;12.70;9.90;;;;;;;;;;5074443;28;20470;-81
2023/10/27 01:17:39;;;;;;;10.50;9.50;;;;;;;;;;5072420;28;20467;-81
2023/10/27 01:20:10;;;;;;;12.60;9.20;;;;;;;;;;5073073;28;20443;-81
2023/10/27 01:22:41;;;;;;;10.57;8.70;;;;;;;;;;5074488;28;20467;-81
2023/10/27 01:25:08;;;;;;;10.03;8.83;;;;;;;;;;5074625;28;20462;-82
2023/10/27 01:27:34;;;;;;;10.93;9.80;;;;;;;;;;5073055;28;20474;-82
2023/10/27 01:30:01;;;;;;;11.73;9.63;;;;;;;;;;5074478;28;20486;-82
2023/10/27 01:32:27;;;;;;;10.63;9.20;;;;;;;;;;5074002;28;20476;-81
2023/10/27 01:34:54;;;;;;;11.30;9.63;;;;;;;;;;5074429;28;20462;-82
2023/10/27 01:37:20;;;;;;;9.53;8.30;;;;;;;;;;5074119;28;20467;-81
2023/10/27 01:39:49;;;;;;;10.80;9.73;;;;;;;;;;5074497;28;20445;-81
2023/10/27 01:42:15;;;;;;;10.70;9.50;;;;;;;;;;5073182;28;20521;-81
2023/10/27 01:44:42;;;;;;;9.90;8.40;;;;;;;;;;5056820;28;20459;-81
2023/10/27 01:47:08;;;;;;;12.60;8.83;;;;;;;;;;5074212;28;21010;-81
2023/10/27 01:49:35;;;;;;;10.27;7.70;;;;;;;;;;5074049;28;20866;-81
2023/10/27 01:52:01;;;;;;;9.50;8.53;;;;;;;;;;5072767;28;20470;-81
2023/10/27 01:54:27;;;;;;;11.97;7.97;;;;;;;;;;5074313;28;20463;-81
2023/10/27 01:56:55;;;;;;;8.80;7.80;;;;;;;;;;5074282;28;21031;-81
2023/10/27 01:59:21;;;;;;;9.90;8.17;;;;;;;;;;5074877;28;20799;-81
2023/10/27 02:01:48;;;;;;;10.00;7.80;;;;;;;;;;5074020;28;20463;-81
2023/10/27 02:04:14;;;;;;;7.83;7.03;;;;;;;;;;5073829;28;20525;-81
2023/10/27 02:06:40;;;;;;;7.77;6.97;;;;;;;;;;5074218;28;20463;-81
2023/10/27 02:09:07;;;;;;;9.83;7.80;;;;;;;;;;5074671;28;20478;-81
2023/10/27 02:11:33;;;;;;;8.00;7.00;;;;;;;;;;5074003;28;20455;-82
2023/10/27 02:14:01;;;;;;;9.30;6.73;;;;;;;;;;5074584;28;21003;-82
2023/10/27 02:16:27;;;;;;;8.67;7.10;;;;;;;;;;5076568;28;20435;-82
2023/10/27 02:18:53;;;;;;;7.17;6.30;;;;;;;;;;5077412;28;20435;-83
2023/10/27 02:21:20;;;;;;;7.67;6.87;;;;;;;;;;5075892;28;20435;-82
2023/10/27 02:23:47;;;;;;;6.97;6.20;;;;;;;;;;5077566;28;20851;-83
2023/10/27 02:26:14;;;;;;;7.40;6.13;;;;;;;;;;5076117;28;20439;-82
2023/10/27 02:28:40;;;;;;;5.80;5.23;;;;;;;;;;5077561;28;20923;-81
2023/10/27 02:31:08;;;;;;;7.30;6.00;;;;;;;;;;5077625;28;20445;-82
2023/10/27 02:33:34;;;;;;;6.97;6.27;;;;;;;;;;5077459;28;20482;-81
2023/10/27 02:36:01;;;;;;;6.47;5.33;;;;;;;;;;5076328;28;20431;-83
2023/10/27 02:38:27;;;;;;;9.47;5.63;;;;;;;;;;5076457;28;20467;-80
2023/10/27 02:40:54;;;;;;;7.07;5.73;;;;;;;;;;5076383;28;20945;-80
2023/10/27 02:43:20;;;;;;;7.03;5.47;;;;;;;;;;5076418;28;20885;-82
2023/10/27 02:45:46;;;;;;;6.10;4.93;;;;;;;;;;5077186;28;20443;-82
2023/10/27 02:48:14;;;;;;;6.63;5.73;;;;;;;;;;5075010;28;20467;-83
2023/10/27 02:50:41;;;;;;;6.90;5.70;;;;;;;;;;5076824;28;20446;-82
2023/10/27 02:53:09;;;;;;;5.97;5.27;;;;;;;;;;5076243;28;21004;-82
2023/10/27 02:55:36;;;;;;;6.20;5.20;;;;;;;;;;5076552;28;20459;-82
2023/10/27 02:58:02;;;;;;;11.53;5.60;;;;;;;;;;5076394;28;20536;-81
2023/10/27 03:00:29;;;;;;;7.03;5.33;;;;;;;;;;5076672;28;20443;-82
2023/10/27 03:02:55;;;;;;;5.20;4.70;;;;;;;;;;5076202;28;20470;-83
2023/10/27 03:05:23;;;;;;;6.80;5.30;;;;;;;;;;5076964;28;20859;-82
2023/10/27 03:07:49;;;;;;;7.30;4.90;;;;;;;;;;5075797;28;20473;-82
2023/10/27 03:10:16;;;;;;;7.43;6.40;;;;;;;;;;5076433;28;21035;-82
2023/10/27 03:12:42;;;;;;;6.43;5.83;;;;;;;;;;5076260;28;20471;-82
2023/10/27 03:15:09;;;;;;;6.30;5.00;;;;;;;;;;5076570;28;20463;-82
2023/10/27 03:17:35;;;;;;;6.03;5.43;;;;;;;;;;5074890;28;20467;-81
2023/10/27 03:20:04;;;;;;;6.13;5.03;;;;;;;;;;5076224;28;20897;-81
2023/10/27 03:22:32;;;;;;;6.90;5.50;;;;;;;;;;5076195;28;20486;-81
2023/10/27 03:24:59;;;;;;;5.43;4.93;;;;;;;;;;5076347;28;20516;-82
2023/10/27 03:27:25;;;;;;;6.07;5.30;;;;;;;;;;5075362;28;20452;-81
2023/10/27 03:29:52;;;;;;;5.30;4.80;;;;;;;;;;5074613;28;20471;-81
2023/10/27 03:32:18;;;;;;;5.70;5.20;;;;;;;;;;5075710;28;20997;-81
2023/10/27 03:34:45;;;;;;;5.80;5.10;;;;;;;;;;5076192;28;20459;-82
2023/10/27 03:37:12;;;;;;;5.10;4.37;;;;;;;;;;5075394;28;20467;-82
2023/10/27 03:39:40;;;;;;;5.37;4.87;;;;;;;;;;5076280;28;20792;-82
2023/10/27 03:42:07;;;;;;;6.77;5.17;;;;;;;;;;5075460;28;20467;-82
2023/10/27 03:44:33;;;;;;;5.40;4.50;;;;;;;;;;5075524;28;20459;-82
2023/10/27 03:47:00;;;;;;;5.90;5.30;;;;;;;;;;5075253;28;20445;-83
2023/10/27 03:49:27;;;;;;;6.27;5.30;;;;;;;;;;5075450;28;20483;-82
2023/10/27 03:51:53;;;;;;;4.73;4.33;;;;;;;;;;5075238;28;20459;-82
2023/10/27 03:54:20;;;;;;;5.90;5.00;;;;;;;;;;5075729;28;20459;-82
2023/10/27 03:56:48;;;;;;;6.13;5.47;;;;;;;;;;5074062;28;20516;-80
2023/10/27 03:59:16;;;;;;;5.70;5.10;;;;;;;;;;5075876;28;20443;-82
2023/10/27 04:01:42;;;;;;;8.17;5.57;;;;;;;;;;5075149;28;20463;-80
2023/10/27 04:04:09;;;;;;;6.17;5.57;;;;;;;;;;5075406;28;20987;-80
2023/10/27 04:06:36;;;;;;;4.93;4.43;;;;;;;;;;5074006;28;20478;-80
2023/10/27 04:09:03;;;;;;;6.00;4.83;;;;;;;;;;5075959;28;20449;-80
2023/10/27 04:11:29;;;;;;;5.60;4.87;;;;;;;;;;5075364;28;20850;-82
2023/10/27 04:13:57;;;;;;;9.27;5.13;;;;;;;;;;5073992;28;20472;-82
2023/10/27 04:16:23;;;;;;;6.10;4.97;;;;;;;;;;5074752;28;20438;-82
2023/10/27 04:18:50;;;;;;;6.47;4.83;;;;;;;;;;5075536;28;20450;-82
2023/10/27 04:21:16;;;;;;;5.17;4.67;;;;;;;;;;5074894;28;20438;-82
2023/10/27 04:23:43;;;;;;;5.50;4.13;;;;;;;;;;5075293;28;20467;-82
2023/10/27 04:26:11;;;;;;;6.53;4.40;;;;;;;;;;5075138;28;21006;-82
2023/10/27 04:28:38;;;;;;;5.83;5.13;;;;;;;;;;5075101;28;20885;-81
2023/10/27 04:31:06;;;;;;;5.33;4.73;;;;;;;;;;5073898;28;20443;-81
2023/10/27 04:33:33;;;;;;;7.10;5.57;;;;;;;;;;5074753;28;20479;-82
2023/10/27 04:35:59;;;;;;;7.30;4.60;;;;;;;;;;5073913;28;20439;-82
2023/10/27 04:38:25;;;;;;;4.67;4.00;;;;;;;;;;5072643;28;20479;-82
2023/10/27 04:40:52;;;;;;;6.33;4.50;;;;;;;;;;5074888;28;20438;-81
2023/10/27 04:43:18;;;;;;;5.93;4.27;;;;;;;;;;5073383;28;20497;-81
2023/10/27 04:45:46;;;;;;;9.60;4.73;;;;;;;;;;5074649;28;20446;-82
2023/10/27 04:48:13;;;;;;;6.93;5.60;;;;;;;;;;5074303;28;20474;-82
2023/10/27 04:50:40;;;;;;;6.07;5.40;;;;;;;;;;5074991;28;20478;-81
2023/10/27 04:53:06;;;;;;;6.73;5.03;;;;;;;;;;5074248;28;20462;-81
2023/10/27 04:55:32;;;;;;;6.40;5.57;;;;;;;;;;5074589;28;20470;-81
2023/10/27 04:57:59;;;;;;;7.33;5.10;;;;;;;;;;5074286;28;21026;-81
2023/10/27 05:00:25;;;;;;;6.03;5.27;;;;;;;;;;5075235;28;20447;-81
2023/10/27 05:02:53;;;;;;;4.97;4.10;;;;;;;;;;5075198;28;20482;-82
2023/10/27 05:05:21;;;;;;;8.13;5.23;;;;;;;;;;5073573;28;20554;-82
2023/10/27 05:07:47;;;;;;;5.73;4.57;;;;;;;;;;5074462;28;20516;-82
2023/10/27 05:10:14;;;;;;;9.13;5.47;;;;;;;;;;5075084;28;21008;-82
2023/10/27 05:12:40;;;;;;;5.47;4.23;;;;;;;;;;5074706;28;20462;-82
2023/10/27 05:15:07;;;;;;;6.90;4.43;;;;;;;;;;5074777;28;20501;-81
2023/10/27 05:17:35;;;;;;;4.70;4.00;;;;;;;;;;5074640;28;20463;-82
2023/10/27 05:20:02;;;;;;;7.33;5.00;;;;;;;;;;5074965;28;20463;-82
2023/10/27 05:22:31;;;;;;;8.73;5.07;;;;;;;;;;5072812;28;20470;-81
2023/10/27 05:24:58;;;;;;;4.97;4.50;;;;;;;;;;5073693;28;20977;-80
2023/10/27 05:27:25;;;;;;;6.40;4.07;;;;;;;;;;5074423;28;20532;-83
2023/10/27 05:29:51;;;;;;;5.83;4.50;;;;;;;;;;5074929;28;20482;-82
2023/10/27 05:32:17;;;;;;;7.10;4.07;;;;;;;;;;5074455;28;20473;-82
2023/10/27 05:34:44;;;;;;;4.80;4.07;;;;;;;;;;5074302;28;20474;-82
2023/10/27 05:37:10;;;;;;;4.00;3.60;;;;;;;;;;5056985;28;20467;-83
2023/10/27 05:39:38;;;;;;;7.00;4.20;;;;;;;;;;5074197;28;20417;-82
2023/10/27 05:42:05;;;;;;;4.17;3.80;;;;;;;;;;5074732;28;20491;-81
2023/10/27 05:44:31;;;;;;;4.47;3.60;;;;;;;;;;5074724;28;20470;-82
2023/10/27 05:46:59;;;;;;;3.50;3.20;;;;;;;;;;5073960;28;20466;-82
2023/10/27 05:49:25;;;;;;;4.47;3.83;;;;;;;;;;5074147;28;20474;-82
2023/10/27 05:51:51;;;;;;;7.17;4.10;;;;;;;;;;5077264;28;20445;-80
2023/10/27 05:54:18;;;;;;;3.87;3.33;;;;;;;;;;5076917;28;20466;-80
2023/10/27 05:56:45;;;;;;;6.03;4.20;;;;;;;;;;5077072;28;20463;-80
2023/10/27 05:59:12;;;;;;;5.50;3.77;;;;;;;;;;5078465;28;20443;-81
2023/10/27 06:01:38;;;;;;;5.50;3.37;;;;;;;;;;5076592;28;20516;-80
2023/10/27 06:04:05;;;;;;;4.27;3.87;;;;;;;;;;5075909;28;20446;-83
2023/10/27 06:06:31;;;;;;;4.27;3.87;;;;;;;;;;5078224;28;20459;-80
2023/10/27 06:08:58;;;;;;;6.20;3.73;;;;;;;;;;5077837;28;20439;-80
2023/10/27 06:11:24;;;;;;;5.50;4.30;;;;;;;;;;5077042;28;20479;-80
2023/10/27 06:13:52;;;;;;;7.93;4.53;;;;;;;;;;5077378;28;20466;-82
2023/10/27 06:16:18;;;;;;;5.67;3.73;;;;;;;;;;5077084;28;20439;-80
2023/10/27 06:18:44;;;;;;;8.83;4.47;;;;;;;;;;5076326;28;20435;-82
2023/10/27 06:21:11;;;;;;;5.90;4.10;;;;;;;;;;5076649;28;20439;-82
2023/10/27 06:23:37;;;;;;;8.23;4.20;;;;;;;;;;5077344;28;20466;-82
2023/10/27 06:26:04;;;;;;;8.07;5.50;;;;;;;;;;5077392;28;20443;-82
2023/10/27 06:28:31;;;;;;;5.20;4.70;;;;;;;;;;5075923;28;20458;-82
2023/10/27 06:30:58;;;;;;;6.60;5.77;;;;;;;;;;5058965;28;21064;-83
2023/10/27 06:33:25;;;;;;;9.83;5.53;;;;;;;;;;5076917;28;20463;-82
2023/10/27 06:35:51;;;;;;;6.87;5.27;;;;;;;;;;5077101;28;20447;-82
2023/10/27 06:38:18;;;;;;;7.77;5.77;;;;;;;;;;5076291;28;20441;-82
2023/10/27 06:40:44;;;;;;;7.60;5.40;;;;;;;;;;5077571;28;20435;-82
2023/10/27 06:43:10;;;;;;;7.03;5.40;;;;;;;;;;5076476;28;20474;-80
2023/10/27 06:45:37;;;;;;;8.30;5.40;;;;;;;;;;5077382;28;20450;-83
2023/10/27 06:48:04;;;;;;;8.30;6.20;;;;;;;;;;5076683;28;20455;-83
2023/10/27 06:50:31;;;;;;;16.80;9.37;;;;;;;;;;5076984;28;20836;-82
2023/10/27 06:52:57;;;;;;;10.83;7.00;;;;;;;;;;5076458;28;21027;-82
2023/10/27 06:55:23;;;;;;;11.07;6.30;;;;;;;;;;5075820;28;20459;-82
2023/10/27 06:57:50;;;;;;;8.43;6.37;;;;;;;;;;5076357;28;21032;-82
2023/10/27 07:00:16;;;;;;;9.73;6.50;;;;;;;;;;5077177;28;20436;-82
2023/10/27 07:02:43;;;;;;;10.10;6.10;;;;;;;;;;5075672;28;21003;-82
2023/10/27 07:05:13;;;;;;;10.10;7.67;;;;;;;;;;5075915;28;20918;-83
2023/10/27 07:07:40;;;;;;;10.80;7.20;;;;;;;;;;5075950;28;20458;-82
2023/10/27 07:10:06;;;;;;;11.80;8.33;;;;;;;;;;5077454;28;20490;-82
2023/10/27 07:12:33;;;;;;;10.73;7.70;;;;;;;;;;5077271;28;20467;-82
2023/10/27 07:15:00;;;;;;;12.27;7.83;;;;;;;;;;5076121;28;20459;-82
2023/10/27 07:17:26;;;;;;;11.07;7.90;;;;;;;;;;5076440;28;20470;-82
2023/10/27 07:19:52;;;;;;;10.37;8.20;;;;;;;;;;5076548;28;20814;-82
2023/10/27 07:22:20;;;;;;;14.43;8.80;;;;;;;;;;5074032;28;20459;-82
2023/10/27 07:24:46;;;;;;;16.20;9.60;;;;;;;;;;5076592;28;20459;-82
2023/10/27 07:27:13;;;;;;;17.37;10.73;;;;;;;;;;5075596;28;20466;-82
2023/10/27 07:29:40;;;;;;;14.77;9.30;;;;;;;;;;5075932;28;20439;-82
2023/10/27 07:32:06;;;;;;;13.33;8.90;;;;;;;;;;5075794;28;20493;-82
2023/10/27 07:34:33;;;;;;;19.37;8.97;;;;;;;;;;5075724;28;20490;-82
2023/10/27 07:36:59;;;;;;;16.40;9.73;;;;;;;;;;5074338;28;20459;-82
2023/10/27 07:39:28;;;;;;;18.47;10.20;;;;;;;;;;5074379;28;20453;-82
2023/10/27 07:41:54;;;;;;;12.37;9.10;;;;;;;;;;5075639;28;20466;-82
2023/10/27 07:44:21;;;;;;;15.20;10.57;;;;;;;;;;5075953;28;20459;-82
2023/10/27 07:46:47;;;;;;;20.87;11.40;;;;;;;;;;5075615;28;20459;-82
2023/10/27 07:49:14;;;;;;;17.63;9.67;;;;;;;;;;5074477;28;20501;-82
2023/10/27 07:51:40;;;;;;;17.53;11.47;;;;;;;;;;5075829;28;20474;-81
2023/10/27 07:54:07;;;;;;;18.47;10.53;;;;;;;;;;5076107;28;20462;-82
2023/10/27 07:56:35;;;;;;;18.43;12.17;;;;;;;;;;5075643;28;20459;-81
2023/10/27 07:59:01;;;;;;;15.47;11.20;;;;;;;;;;5076011;28;20438;-81
2023/10/27 08:01:27;;;;;;;15.47;11.17;;;;;;;;;;5075571;28;20446;-80
2023/10/27 08:03:54;;;;;;;20.03;13.43;;;;;;;;;;5075339;28;20947;-81
2023/10/27 08:06:20;;;;;;;17.70;12.50;;;;;;;;;;5075926;28;20780;-81
2023/10/27 08:08:47;;;;;;;22.50;13.00;;;;;;;;;;5076058;28;20438;-80
2023/10/27 08:11:18;;;;;;;23.40;14.43;;;;;;;;;;5076479;28;20486;-81
2023/10/27 08:13:45;;;;;;;21.83;13.53;;;;;;;;;;5075743;28;20456;-81
2023/10/27 08:16:13;;;;;;;23.90;13.80;;;;;;;;;;5075449;28;20443;-83
2023/10/27 08:18:40;;;;;;;23.17;13.63;;;;;;;;;;5074365;28;20450;-83
2023/10/27 08:21:06;;;;;;;20.10;14.03;;;;;;;;;;5075328;28;20446;-82
2023/10/27 08:23:33;;;;;;;25.63;14.57;;;;;;;;;;5075144;28;20478;-83
2023/10/27 08:25:59;;;;;;;17.93;13.67;;;;;;;;;;5075055;28;20816;-82
2023/10/27 08:28:25;;;;;;;23.87;13.63;;;;;;;;;;5075253;28;20497;-82
2023/10/27 08:30:53;;;;;;;22.60;15.00;;;;;;;;;;5075302;28;20483;-82
2023/10/27 08:33:19;;;;;;;25.20;13.10;;;;;;;;;;5075167;28;20455;-82
2023/10/27 08:35:46;;;;;;;22.50;13.80;;;;;;;;;;5074664;28;20827;-83
2023/10/27 08:38:12;;;;;;;22.67;15.73;;;;;;;;;;5074673;28;20474;-82
2023/10/27 08:40:38;;;;;;;27.40;15.90;;;;;;;;;;5075086;28;20442;-82
2023/10/27 08:43:04;;;;;;;22.73;15.13;;;;;;;;;;5074658;28;20459;-82
2023/10/27 08:45:32;;;;;;;22.73;15.00;;;;;;;;;;5074815;28;20466;-83
2023/10/27 08:48:01;;;;;;;25.83;15.53;;;;;;;;;;5074631;28;21065;-82
2023/10/27 08:50:29;;;;;;;25.63;14.80;;;;;;;;;;5074542;28;20532;-82
2023/10/27 08:52:56;;;;;;;28.83;15.20;;;;;;;;;;5074821;28;20980;-82
2023/10/27 08:55:22;;;;;;;24.60;15.40;;;;;;;;;;5073545;28;20474;-82
2023/10/27 08:57:48;;;;;;;29.60;15.73;;;;;;;;;;5073881;28;20477;-82
2023/10/27 09:00:16;;;;;;;25.20;15.23;;;;;;;;;;5074683;28;20783;-82
2023/10/27 09:02:42;;;;;;;20.73;14.20;;;;;;;;;;5074213;28;20470;-82
2023/10/27 09:05:11;;;;;;;20.30;14.43;;;;;;;;;;5074654;28;20512;-82
2023/10/27 09:07:38;;;;;;;22.67;14.43;;;;;;;;;;5074496;28;20469;-83
2023/10/27 09:10:07;;;;;;;22.87;15.23;;;;;;;;;;5074071;28;20439;-83
2023/10/27 09:12:36;;;;;;;27.73;15.90;;;;;;;;;;5072983;28;20494;-82
2023/10/27 09:15:04;;;;;;;26.10;15.23;;;;;;;;;;5074997;28;20467;-82
2023/10/27 09:17:31;;;;;;;24.47;15.03;;;;;;;;;;5073993;28;20865;-82
2023/10/27 09:20:05;;;;;;;23.27;13.37;;;;;;;;;;5074144;28;20903;-82
2023/10/27 09:22:33;;;;;;;23.60;14.77;;;;;;;;;;5073854;28;21023;-82
2023/10/27 09:25:13;;;;;;;24.20;13.43;;;;;;;;;;5073780;28;20473;-82
2023/10/27 09:27:42;;;;;;;21.20;13.97;;;;;;;;;;5076879;28;20505;-83
2023/10/27 09:30:11;;;;;;;20.00;13.70;;;;;;;;;;5078359;28;20501;-83
2023/10/27 09:32:37;;;;;;;22.73;13.63;;;;;;;;;;5077921;28;20465;-82
2023/10/27 09:35:10;;;;;;;19.90;13.17;;;;;;;;;;5078408;28;20988;-83
2023/10/27 09:37:38;;;;;;;23.27;15.10;;;;;;;;;;5078316;28;21015;-82
2023/10/27 09:40:06;;;;;;;17.43;12.23;;;;;;;;;;5077318;28;20439;-81
2023/10/27 09:42:34;;;;;;;19.70;12.53;;;;;;;;;;5076465;28;20836;-81
2023/10/27 09:45:04;;;;;;;20.33;12.93;;;;;;;;;;5078415;28;20456;-81
2023/10/27 09:47:34;;;;;;;19.00;12.33;;;;;;;;;;5077819;28;20558;-82
2023/10/27 09:50:05;;;;;;;20.33;11.07;;;;;;;;;;5077245;28;20431;-82
2023/10/27 09:52:32;;;;;;;16.73;12.47;;;;;;;;;;5077821;28;21002;-82
2023/10/27 09:55:05;;;;;;;18.87;12.10;;;;;;;;;;5076729;28;20834;-83
2023/10/27 09:57:32;;;;;;;17.70;11.13;;;;;;;;;;5077830;28;20996;-80
2023/10/27 10:00:00;;;;;;;23.03;11.97;;;;;;;;;;5060304;28;20413;-82
2023/10/27 10:02:28;;;;;;;14.37;10.60;;;;;;;;;;5077361;28;20449;-82
2023/10/27 10:05:00;;;;;;;15.43;10.70;;;;;;;;;;5060812;28;21042;-82
2023/10/27 10:07:33;;;;;;;18.23;11.00;;;;;;;;;;5077765;28;20561;-82
2023/10/27 10:10:16;;;;;;;19.60;10.40;;;;;;;;;;5078384;28;20427;-81
2023/10/27 10:13:02;;;;;;;20.70;10.83;;;;;;;;;;5078210;28;20523;-82
2023/10/27 10:15:29;;;;;;;13.93;9.67;;;;;;;;;;5078052;28;20494;-82
2023/10/27 10:17:55;;;;;;;20.50;12.00;;;;;;;;;;5077886;28;20467;-82
2023/10/27 10:20:41;;;;;;;14.40;10.53;;;;;;;;;;5078174;28;20936;-82
2023/10/27 10:23:07;;;;;;;16.33;10.87;;;;;;;;;;5077240;28;20810;-82
2023/10/27 10:25:36;;;;;;;15.90;9.93;;;;;;;;;;5076800;28;20437;-82
2023/10/27 10:28:21;;;;;;;14.63;10.53;;;;;;;;;;5077918;28;20470;-82
2023/10/27 10:30:48;;;;;;;17.70;11.50;;;;;;;;;;5078099;28;20474;-80
2023/10/27 10:33:19;;;;;;;16.07;12.20;;;;;;;;;;5077630;28;20445;-83
2023/10/27 10:35:46;;;;;;;14.57;10.90;;;;;;;;;;5077685;28;20944;-82
2023/10/27 10:38:27;;;;;;;17.10;10.77;;;;;;;;;;5076454;28;20463;-82
2023/10/27 10:40:57;;;;;;;17.10;11.33;;;;;;;;;;5077468;28;20435;-82
2023/10/27 10:43:24;;;;;;;18.80;11.07;;;;;;;;;;5077717;28;20471;-82
2023/10/27 10:45:53;;;;;;;16.73;11.30;;;;;;;;;;5076625;28;20442;-82
2023/10/27 10:48:20;;;;;;;18.90;11.67;;;;;;;;;;5076881;28;20476;-82
2023/10/27 10:50:47;;;;;;;17.30;11.80;;;;;;;;;;5077151;28;20805;-82
2023/10/27 10:53:15;;;;;;;14.77;10.67;;;;;;;;;;5077096;28;20911;-82
2023/10/27 10:55:42;;;;;;;18.43;12.60;;;;;;;;;;5076331;28;20450;-82
2023/10/27 10:58:10;;;;;;;17.63;10.30;;;;;;;;;;5076944;28;20474;-82
2023/10/27 11:00:37;;;;;;;16.67;11.20;;;;;;;;;;5077311;28;20446;-82
2023/10/27 11:03:07;;;;;;;15.43;12.63;;;;;;;;;;5077570;28;20467;-80
2023/10/27 11:05:33;;;;;;;15.13;10.63;;;;;;;;;;5077547;28;20474;-82
2023/10/27 11:08:00;;;;;;;16.43;10.80;;;;;;;;;;5076230;28;21000;-82
2023/10/27 11:10:27;;;;;;;13.70;10.20;;;;;;;;;;5075759;28;20443;-82
2023/10/27 11:12:53;;;;;;;20.07;11.40;;;;;;;;;;5076695;28;20471;-81
2023/10/27 11:15:38;;;;;;;16.17;12.00;;;;;;;;;;5077462;28;20954;-81
2023/10/27 11:18:06;;;;;;;17.30;11.67;;;;;;;;;;5076920;28;20819;-81
2023/10/27 11:20:36;;;;;;;18.93;10.97;;;;;;;;;;5077681;28;20439;-81
2023/10/27 11:23:09;;;;;;;15.67;10.33;;;;;;;;;;5077024;28;20459;-81
2023/10/27 11:25:36;;;;;;;15.73;10.30;;;;;;;;;;5076400;28;20458;-81
2023/10/27 11:28:18;;;;;;;16.53;10.50;;;;;;;;;;5077179;28;20475;-81
2023/10/27 11:30:44;;;;;;;12.97;9.93;;;;;;;;;;5076970;28;20936;-81
2023/10/27 11:33:12;;;;;;;15.27;10.80;;;;;;;;;;5075685;28;20825;-81
2023/10/27 11:35:45;;;;;;;14.60;10.30;;;;;;;;;;5076890;28;20439;-81
2023/10/27 11:38:11;;;;;;;17.53;11.10;;;;;;;;;;5076425;28;20442;-81
2023/10/27 11:40:38;;;;;;;17.17;11.50;;;;;;;;;;5075119;28;20488;-81
2023/10/27 11:43:04;;;;;;;18.43;10.80;;;;;;;;;;5076286;28;20446;-81
2023/10/27 11:45:31;;;;;;;16.90;11.83;;;;;;;;;;5078281;28;20470;-82
2023/10/27 11:47:57;;;;;;;22.20;11.30;;;;;;;;;;5076032;28;20448;-81
2023/10/27 11:50:25;;;;;;;15.17;10.80;;;;;;;;;;5078964;28;20454;-80
2023/10/27 11:52:52;;;;;;;18.97;10.90;;;;;;;;;;5074486;28;20449;-83
2023/10/27 11:55:19;;;;;;;16.63;12.00;;;;;;;;;;5076540;28;20437;-80
2023/10/27 11:57:45;;;;;;;15.20;10.40;;;;;;;;;;5075957;28;20449;-82
2023/10/27 12:00:12;;;;;;;17.20;11.00;;;;;;;;;;5075118;28;20431;-82
2023/10/27 12:02:38;;;;;;;15.13;10.47;;;;;;;;;;5075892;28;20493;-82
2023/10/27 12:05:04;;;;;;;13.90;9.97;;;;;;;;;;5076043;28;20513;-82
2023/10/27 12:07:32;;;;;;;16.70;10.47;;;;;;;;;;5074273;28;20455;-82
2023/10/27 12:09:58;;;;;;;16.20;12.10;;;;;;;;;;5076164;28;20215;-82
2023/10/27 12:12:25;;;;;;;14.20;10.93;;;;;;;;;;5074415;28;20470;-81
2023/10/27 12:14:51;;;;;;;17.30;11.87;;;;;;;;;;5074798;28;20463;-82
2023/10/27 12:17:17;;;;;;;14.67;10.53;;;;;;;;;;5075474;28;20471;-81
2023/10/27 12:19:44;;;;;;;17.50;10.53;;;;;;;;;;5075911;28;20441;-82
2023/10/27 12:22:11;;;;;;;15.13;10.30;;;;;;;;;;5074434;28;20873;-82
2023/10/27 12:24:38;;;;;;;17.67;11.20;;;;;;;;;;5074460;28;20429;-82
2023/10/27 12:27:09;;;;;;;19.97;12.80;;;;;;;;;;5075483;28;20449;-82
2023/10/27 12:29:35;;;;;;;14.50;10.90;;;;;;;;;;5075101;28;20452;-82
2023/10/27 12:32:03;;;;;;;16.87;11.47;;;;;;;;;;5075813;28;20494;-80
2023/10/27 12:34:29;;;;;;;17.90;11.87;;;;;;;;;;5076364;28;20478;-80
2023/10/27 12:36:56;;;;;;;19.00;12.00;;;;;;;;;;5075289;28;20471;-80
2023/10/27 12:39:23;;;;;;;21.10;12.83;;;;;;;;;;5075533;28;20830;-82
2023/10/27 12:41:52;;;;;;;18.13;12.77;;;;;;;;;;5075485;28;20525;-82
2023/10/27 12:44:18;;;;;;;21.03;13.10;;;;;;;;;;5074219;28;20553;-82
2023/10/27 12:46:44;;;;;;;19.10;13.10;;;;;;;;;;5075503;28;20456;-82
2023/10/27 12:49:11;;;;;;;18.67;12.50;;;;;;;;;;5075305;28;20421;-82
2023/10/27 12:51:38;;;;;;;19.40;11.90;;;;;;;;;;5075229;28;20470;-82
2023/10/27 12:54:04;;;;;;;22.67;13.50;;;;;;;;;;5075572;28;20433;-82
2023/10/27 12:56:31;;;;;;;23.13;12.73;;;;;;;;;;5075898;28;25640;-82
2023/10/27 12:58:58;;;;;;;20.73;13.17;;;;;;;;;;5074760;28;20405;-82
2023/10/27 13:01:25;;;;;;;20.30;13.77;;;;;;;;;;5073144;28;20443;-82
2023/10/27 13:03:52;;;;;;;16.03;12.43;;;;;;;;;;5075354;28;20912;-82
2023/10/27 13:06:18;;;;;;;20.83;12.63;;;;;;;;;;5073620;28;20451;-83
2023/10/27 13:08:45;;;;;;;18.40;13.20;;;;;;;;;;5075535;28;20414;-82
2023/10/27 13:11:12;;;;;;;15.90;11.80;;;;;;;;;;5075916;28;20888;-83
2023/10/27 13:13:39;;;;;;;17.40;12.73;;;;;;;;;;5075010;28;20458;-82
2023/10/27 13:16:13;;;;;;;17.80;12.07;;;;;;;;;;5074968;28;20446;-82
2023/10/27 13:18:40;;;;;;;17.30;11.73;;;;;;;;;;5075006;28;20426;-81
2023/10/27 13:21:13;;;;;;;17.83;12.57;;;;;;;;;;5074752;28;20417;-80
2023/10/27 13:23:40;;;;;;;19.20;12.93;;;;;;;;;;5075264;28;20573;-82
2023/10/27 13:26:06;;;;;;;18.23;12.80;;;;;;;;;;5075501;28;20443;-82
2023/10/27 13:28:32;;;;;;;16.40;12.13;;;;;;;;;;5074894;28;20449;-82
2023/10/27 13:30:59;;;;;;;15.43;11.67;;;;;;;;;;5075224;28;20439;-82
2023/10/27 13:33:27;;;;;;;14.50;11.33;;;;;;;;;;5074192;28;20509;-82
2023/10/27 13:36:00;;;;;;;17.07;10.80;;;;;;;;;;5075339;28;20450;-82
2023/10/27 13:38:27;;;;;;;14.17;10.50;;;;;;;;;;5074770;28;20448;-84
2023/10/27 13:40:54;;;;;;;16.13;11.83;;;;;;;;;;5075007;28;20531;-81
2023/10/27 13:43:21;;;;;;;16.93;10.70;;;;;;;;;;5074925;28;20466;-80
2023/10/27 13:45:47;;;;;;;13.67;10.90;;;;;;;;;;5075565;28;20443;-80
2023/10/27 13:48:14;;;;;;;15.23;10.87;;;;;;;;;;5073597;28;20445;-80
2023/10/27 13:50:43;;;;;;;13.97;9.93;;;;;;;;;;5075382;28;20449;-82
2023/10/27 13:53:09;;;;;;;17.93;10.53;;;;;;;;;;5074685;28;20567;-82
2023/10/27 13:55:36;;;;;;;14.90;11.00;;;;;;;;;;5074789;28;20541;-81
2023/10/27 13:58:04;;;;;;;14.23;10.53;;;;;;;;;;5074201;28;20509;-82
2023/10/27 14:00:31;;;;;;;15.67;10.90;;;;;;;;;;5073298;28;20454;-80
2023/10/27 14:02:57;;;;;;;12.90;9.50;;;;;;;;;;5073155;28;20448;-82
2023/10/27 14:05:24;;;;;;;14.67;9.80;;;;;;;;;;5075111;28;20459;-80
2023/10/27 14:07:51;;;;;;;14.13;10.00;;;;;;;;;;5074611;28;20881;-80
2023/10/27 14:10:19;;;;;;;12.77;8.27;;;;;;;;;;5074798;28;20455;-81
2023/10/27 14:12:45;;;;;;;15.60;9.73;;;;;;;;;;5077612;28;20441;-81
2023/10/27 14:15:13;;;;;;;12.97;8.60;;;;;;;;;;5078508;28;20438;-83
2023/10/27 14:17:39;;;;;;;12.90;8.70;;;;;;;;;;5078787;28;20456;-82
2023/10/27 14:20:06;;;;;;;15.90;11.33;;;;;;;;;;5078323;28;20417;-81
2023/10/27 14:22:32;;;;;;;10.53;8.07;;;;;;;;;;5077043;28;20471;-82
2023/10/27 14:25:01;;;;;;;14.03;8.60;;;;;;;;;;5078467;28;20455;-82
2023/10/27 14:27:28;;;;;;;13.53;8.37;;;;;;;;;;5075944;28;20449;-82
2023/10/27 14:29:54;;;;;;;13.00;8.80;;;;;;;;;;5077995;28;20457;-82